Aviation Digital Data Service (ADDS)

Output produced by METARs form (0058 UTC 22 September 2017)
found at http://www.aviationweather.gov/adds/metars/
 
TISX 212352Z 2200/2224 14010G20KT P6SM VCTS SCT010 BKN025CB 
     FM220600 14010G20KT P6SM VCSH SCT010 BKN025 
     FM221200 13010G20KT P6SM VCSH SCT020 BKN050 AMD NOT SKED
       
TIST 212352Z 2200/2224 14015G25KT P6SM VCSH SCT015 OVC035 
     FM221200 13015G25KT P6SM VCSH SCT020 BKN050 AMD NOT SKED